Details From EGPE - Inverness
To LFOT - Tours Val De Loire Ab
Flight Number -
Tags Generated
Created
Modified
Stats Distance 632 nm / 1,171 km
Max Altitude 0 ft / 0 m
Waypoints 4
Social Downloads 1
Likes 0
Share VATSIM

Download

Looking for another format? Having issues loading an existing format? Contact us
Advertisement - Login to hide

Notes

Generated

Route

EGPE DTY90 DEVRO LFOT

ID Type Via Altitude Latitude Longitude Leg Dist Tot Dist Heading (true) Name
O EGPE APT - 0 ft / 0 m 57.54464˚ -4.05987˚ - 0 nm - -
DTY90 FIX - 0 ft / 0 m 52.30298˚ -1.25414˚ 329 nm 329 nm 162° / 164° -
DEVRO FIX - 0 ft / 0 m 47.49556˚ 0.73861˚ 298 nm 628 nm 164° / 166° -
O LFOT APT - 0 ft / 0 m 47.42722˚ 0.72658˚ 4 nm 632 nm 187° / 187° Tours Val De Loire AB

Altitude Profile

Advertisement - Login to hide

Weather


0- 5 10 15 20 25 30 35+ Temperature / ° C

Clouds and Precipitation
Forecast for 2018-05-20 12:00 UTC. Updated an hour ago

Ground ~20,000 ft ~40,000 ft Winds

EGPE

Details ICAO EGPE (INV)
Name Inverness
Region United Kingdom
Timezone Europe/London (UTC+1.0)
Stats Elevation 31 ft / 9 m (AMSL)
Location 57.543039° -4.050944°
Runways 2
Magnetic Variation 2.804° W

METAR

EGPE 201150Z 23022KT 9999 VCBLDU FEW035 19/11 Q1013

Decode

TAF

Not found

Departure Runways

ID Width Length Bearing (true) Bearing (mag) Surface Threshold Offset Overrun Length
05 151 ft / 46 m 6,179 ft / 1,883 m 49.39° 52.19° Asphalt 220 ft / 67 m 0 ft / 0 m
12 59 ft / 18 m 2,299 ft / 701 m 109.63° 112.43° Asphalt 0 ft / 0 m 0 ft / 0 m
23 151 ft / 46 m 6,179 ft / 1,883 m 229.41° 232.21° Asphalt 0 ft / 0 m 0 ft / 0 m
30 59 ft / 18 m 2,299 ft / 701 m 289.64° 292.44° Asphalt 0 ft / 0 m 0 ft / 0 m

LFOT

Details ICAO LFOT (TUF)
Name Tours Val De Loire AB
Region France
Timezone Europe/Paris (UTC+2.0)
Stats Elevation 356 ft / 109 m (AMSL)
Location 47.432974° 0.728402°
Runways 2
Magnetic Variation 0.249° E

METAR

LFOT 201200Z AUTO 07008KT 020V110 CAVOK 21/11 Q1018 NOSIG

Decode

TAF

TAF LFOT 201100Z 2012/2112 06008KT CAVOK BECMG 2110/2112 VRB03KT

Decode

Destination Runways

ID Width Length Bearing (true) Bearing (mag) Surface Threshold Offset Overrun Length
02 148 ft / 45 m 7,891 ft / 2,405 m 15.22° 14.97° Concrete 0 ft / 0 m 968 ft / 295 m
02R 197 ft / 60 m 4,925 ft / 1,501 m 15.24° 14.99° Grass 0 ft / 0 m 0 ft / 0 m
20 148 ft / 45 m 7,891 ft / 2,405 m 195.22° 194.97° Concrete 0 ft / 0 m 393 ft / 120 m
20L 197 ft / 60 m 4,925 ft / 1,501 m 195.24° 194.99° Grass 0 ft / 0 m 0 ft / 0 m

Approach Navaids

Runway Type Ident Frequency Range Bearing (true) Bearing (mag) Slope Elevation
20 Localiser TS 110.55 MHz 18 nm / 33 km 195.21° 194.96° - 341 ft / 104 m (AMSL)
20 Glidescope TS 110.55 MHz 10 nm / 19 km 195.22° 194.97° 3.00° 341 ft / 104 m (AMSL)
20 DME TS 110.55 MHz 18 nm / 33 km - - - 408 ft / 124 m (AMSL)